LRTR/TSR METAR and TAF weather

Enter ICAO airport designator
Station Type Date Time Source
LRTR METAR 2020/09/23 00:00 UTC NOAA

LRTR 230000Z 08008KT CAVOK 16/11 Q1014


Station Type Date Time Source
LRTR Decoded METAR 2020/09/23 00:00 UTC NOAA

Timisoara, Romania (LRTR) 45-46N 021-15E 88M
Sep 22, 2020 - 08:00 PM EDT / 2020.09.23 0000 UTC
Wind: from the E (080 degrees) at 9 MPH (8 KT):0
Visibility: greater than 7 mile(s):0
Temperature: 60 F (16 C)
Dew Point: 51 F (11 C)
Relative Humidity: 72%
Pressure (altimeter): 29.94 in. Hg (1014 hPa)
ob: LRTR 230000Z 08008KT CAVOK 16/11 Q1014
cycle: 0

Station Type Date Time Source
LRTR TAF 2020/09/22 18:33 UTC NOAA

TAF LRTR 221700Z 2218/2318 13008KT CAVOK
BECMG 2307/2309 19010KT
TEMPO 2314/2318 FEW045CB
BECMG 2315/2317 VRB04KT

Example: see airport list